sensor_id;sensor_type;location;lat;lon;timestamp;P1;durP1;ratioP1;P2;durP2;ratioP2
11572;SDS011;5842;52.426;4.886;2022-12-20T00:01:44;8.97;;;6.23;;
11572;SDS011;5842;52.426;4.886;2022-12-20T00:04:12;10.23;;;6.30;;
11572;SDS011;5842;52.426;4.886;2022-12-20T00:06:39;7.53;;;6.23;;
11572;SDS011;5842;52.426;4.886;2022-12-20T00:09:07;8.17;;;6.03;;
11572;SDS011;5842;52.426;4.886;2022-12-20T00:11:38;12.70;;;6.93;;
11572;SDS011;5842;52.426;4.886;2022-12-20T00:14:06;8.07;;;5.83;;
11572;SDS011;5842;52.426;4.886;2022-12-20T00:16:34;10.10;;;6.43;;
11572;SDS011;5842;52.426;4.886;2022-12-20T00:19:02;9.43;;;6.33;;
11572;SDS011;5842;52.426;4.886;2022-12-20T00:21:31;9.27;;;5.97;;
11572;SDS011;5842;52.426;4.886;2022-12-20T00:23:59;8.00;;;5.73;;
11572;SDS011;5842;52.426;4.886;2022-12-20T00:26:27;8.43;;;6.00;;
11572;SDS011;5842;52.426;4.886;2022-12-20T00:28:56;9.90;;;6.23;;
11572;SDS011;5842;52.426;4.886;2022-12-20T00:31:24;6.87;;;5.60;;
11572;SDS011;5842;52.426;4.886;2022-12-20T00:33:52;9.93;;;6.13;;
11572;SDS011;5842;52.426;4.886;2022-12-20T00:36:20;7.67;;;5.57;;
11572;SDS011;5842;52.426;4.886;2022-12-20T00:38:49;8.07;;;6.10;;
11572;SDS011;5842;52.426;4.886;2022-12-20T00:41:17;8.87;;;6.13;;
11572;SDS011;5842;52.426;4.886;2022-12-20T00:43:47;7.47;;;5.60;;
11572;SDS011;5842;52.426;4.886;2022-12-20T00:46:17;9.17;;;5.70;;
11572;SDS011;5842;52.426;4.886;2022-12-20T00:48:45;6.80;;;5.73;;
11572;SDS011;5842;52.426;4.886;2022-12-20T00:51:13;7.80;;;5.73;;
11572;SDS011;5842;52.426;4.886;2022-12-20T00:53:41;7.87;;;5.77;;
11572;SDS011;5842;52.426;4.886;2022-12-20T00:56:09;7.93;;;5.43;;
11572;SDS011;5842;52.426;4.886;2022-12-20T00:58:37;8.77;;;5.70;;
11572;SDS011;5842;52.426;4.886;2022-12-20T01:01:05;9.10;;;5.80;;
11572;SDS011;5842;52.426;4.886;2022-12-20T01:03:34;8.17;;;5.70;;
11572;SDS011;5842;52.426;4.886;2022-12-20T01:06:05;8.80;;;5.50;;
11572;SDS011;5842;52.426;4.886;2022-12-20T01:08:32;8.17;;;5.97;;
11572;SDS011;5842;52.426;4.886;2022-12-20T01:10:59;7.13;;;5.33;;
11572;SDS011;5842;52.426;4.886;2022-12-20T01:13:27;8.57;;;5.80;;
11572;SDS011;5842;52.426;4.886;2022-12-20T01:15:55;8.80;;;6.17;;
11572;SDS011;5842;52.426;4.886;2022-12-20T01:18:22;8.60;;;5.47;;
11572;SDS011;5842;52.426;4.886;2022-12-20T01:20:56;9.37;;;6.07;;
11572;SDS011;5842;52.426;4.886;2022-12-20T01:23:26;7.53;;;5.70;;
11572;SDS011;5842;52.426;4.886;2022-12-20T01:25:54;8.07;;;5.50;;
11572;SDS011;5842;52.426;4.886;2022-12-20T01:28:23;8.07;;;5.70;;
11572;SDS011;5842;52.426;4.886;2022-12-20T01:30:51;9.63;;;6.07;;
11572;SDS011;5842;52.426;4.886;2022-12-20T01:33:18;9.73;;;5.77;;
11572;SDS011;5842;52.426;4.886;2022-12-20T01:35:53;7.83;;;5.47;;
11572;SDS011;5842;52.426;4.886;2022-12-20T01:38:22;7.37;;;5.83;;
11572;SDS011;5842;52.426;4.886;2022-12-20T01:40:50;7.53;;;5.60;;
11572;SDS011;5842;52.426;4.886;2022-12-20T01:43:18;9.80;;;6.17;;
11572;SDS011;5842;52.426;4.886;2022-12-20T01:45:46;8.37;;;5.73;;
11572;SDS011;5842;52.426;4.886;2022-12-20T01:48:14;8.10;;;5.70;;
11572;SDS011;5842;52.426;4.886;2022-12-20T01:50:43;7.33;;;5.37;;
11572;SDS011;5842;52.426;4.886;2022-12-20T01:53:10;8.37;;;5.70;;
11572;SDS011;5842;52.426;4.886;2022-12-20T01:55:39;7.47;;;5.80;;
11572;SDS011;5842;52.426;4.886;2022-12-20T01:58:07;7.70;;;5.60;;
11572;SDS011;5842;52.426;4.886;2022-12-20T02:00:36;11.93;;;6.73;;
11572;SDS011;5842;52.426;4.886;2022-12-20T02:03:04;10.73;;;5.80;;
11572;SDS011;5842;52.426;4.886;2022-12-20T02:05:33;9.57;;;6.03;;
11572;SDS011;5842;52.426;4.886;2022-12-20T02:08:00;7.53;;;5.57;;
11572;SDS011;5842;52.426;4.886;2022-12-20T02:10:29;8.67;;;6.03;;
11572;SDS011;5842;52.426;4.886;2022-12-20T02:13:04;8.33;;;5.90;;
11572;SDS011;5842;52.426;4.886;2022-12-20T02:15:36;9.33;;;6.00;;
11572;SDS011;5842;52.426;4.886;2022-12-20T02:18:08;9.53;;;6.20;;
11572;SDS011;5842;52.426;4.886;2022-12-20T02:20:53;10.13;;;6.00;;
11572;SDS011;5842;52.426;4.886;2022-12-20T02:26:25;8.47;;;5.90;;
11572;SDS011;5842;52.426;4.886;2022-12-20T02:29:09;8.03;;;5.40;;
11572;SDS011;5842;52.426;4.886;2022-12-20T02:31:41;8.07;;;5.80;;
11572;SDS011;5842;52.426;4.886;2022-12-20T02:34:09;8.90;;;6.10;;
11572;SDS011;5842;52.426;4.886;2022-12-20T02:36:36;7.17;;;5.50;;
11572;SDS011;5842;52.426;4.886;2022-12-20T02:39:05;6.77;;;5.03;;
11572;SDS011;5842;52.426;4.886;2022-12-20T02:41:33;7.70;;;5.40;;
11572;SDS011;5842;52.426;4.886;2022-12-20T02:44:03;5.87;;;5.20;;
11572;SDS011;5842;52.426;4.886;2022-12-20T02:46:50;8.83;;;5.43;;
11572;SDS011;5842;52.426;4.886;2022-12-20T02:49:19;9.53;;;5.03;;
11572;SDS011;5842;52.426;4.886;2022-12-20T02:51:49;6.90;;;5.20;;
11572;SDS011;5842;52.426;4.886;2022-12-20T02:54:18;8.17;;;5.27;;
11572;SDS011;5842;52.426;4.886;2022-12-20T02:56:46;7.00;;;5.10;;
11572;SDS011;5842;52.426;4.886;2022-12-20T02:59:17;7.67;;;5.03;;
11572;SDS011;5842;52.426;4.886;2022-12-20T03:01:47;11.90;;;5.70;;
11572;SDS011;5842;52.426;4.886;2022-12-20T03:04:17;8.30;;;4.90;;
11572;SDS011;5842;52.426;4.886;2022-12-20T03:06:56;7.47;;;5.20;;
11572;SDS011;5842;52.426;4.886;2022-12-20T03:09:26;7.00;;;4.90;;
11572;SDS011;5842;52.426;4.886;2022-12-20T03:11:54;8.60;;;4.80;;
11572;SDS011;5842;52.426;4.886;2022-12-20T03:14:22;6.60;;;5.03;;
11572;SDS011;5842;52.426;4.886;2022-12-20T03:16:50;7.23;;;5.60;;
11572;SDS011;5842;52.426;4.886;2022-12-20T03:19:19;8.57;;;5.60;;
11572;SDS011;5842;52.426;4.886;2022-12-20T03:21:46;6.87;;;4.70;;
11572;SDS011;5842;52.426;4.886;2022-12-20T03:24:14;7.97;;;5.50;;
11572;SDS011;5842;52.426;4.886;2022-12-20T03:26:42;8.23;;;5.40;;
11572;SDS011;5842;52.426;4.886;2022-12-20T03:29:09;8.53;;;5.27;;
11572;SDS011;5842;52.426;4.886;2022-12-20T03:31:37;8.00;;;5.00;;
11572;SDS011;5842;52.426;4.886;2022-12-20T03:34:04;8.63;;;5.53;;
11572;SDS011;5842;52.426;4.886;2022-12-20T03:36:33;8.20;;;5.40;;
11572;SDS011;5842;52.426;4.886;2022-12-20T03:39:00;8.83;;;5.60;;
11572;SDS011;5842;52.426;4.886;2022-12-20T03:41:28;8.37;;;5.03;;
11572;SDS011;5842;52.426;4.886;2022-12-20T03:43:55;8.73;;;5.10;;
11572;SDS011;5842;52.426;4.886;2022-12-20T03:46:23;9.17;;;5.37;;
11572;SDS011;5842;52.426;4.886;2022-12-20T03:48:54;9.13;;;5.50;;
11572;SDS011;5842;52.426;4.886;2022-12-20T03:51:22;5.90;;;4.90;;
11572;SDS011;5842;52.426;4.886;2022-12-20T03:53:52;7.33;;;5.20;;
11572;SDS011;5842;52.426;4.886;2022-12-20T03:56:20;7.57;;;5.60;;
11572;SDS011;5842;52.426;4.886;2022-12-20T03:58:47;5.83;;;4.80;;
11572;SDS011;5842;52.426;4.886;2022-12-20T04:01:15;7.80;;;5.00;;
11572;SDS011;5842;52.426;4.886;2022-12-20T04:03:43;6.07;;;4.80;;
11572;SDS011;5842;52.426;4.886;2022-12-20T04:06:10;6.90;;;5.00;;
11572;SDS011;5842;52.426;4.886;2022-12-20T04:08:38;7.80;;;5.10;;
11572;SDS011;5842;52.426;4.886;2022-12-20T04:11:07;5.93;;;4.47;;
11572;SDS011;5842;52.426;4.886;2022-12-20T04:13:44;6.83;;;4.80;;
11572;SDS011;5842;52.426;4.886;2022-12-20T04:16:12;7.03;;;4.67;;
11572;SDS011;5842;52.426;4.886;2022-12-20T04:18:39;7.07;;;4.83;;
11572;SDS011;5842;52.426;4.886;2022-12-20T04:21:07;6.67;;;4.50;;
11572;SDS011;5842;52.426;4.886;2022-12-20T04:23:35;7.57;;;5.27;;
11572;SDS011;5842;52.426;4.886;2022-12-20T04:26:03;7.13;;;4.77;;
11572;SDS011;5842;52.426;4.886;2022-12-20T04:28:33;6.20;;;4.70;;
11572;SDS011;5842;52.426;4.886;2022-12-20T04:31:00;7.93;;;5.30;;
11572;SDS011;5842;52.426;4.886;2022-12-20T04:33:28;9.07;;;5.00;;
11572;SDS011;5842;52.426;4.886;2022-12-20T04:35:55;7.70;;;4.80;;
11572;SDS011;5842;52.426;4.886;2022-12-20T04:38:24;6.20;;;4.77;;
11572;SDS011;5842;52.426;4.886;2022-12-20T04:40:52;8.50;;;5.40;;
11572;SDS011;5842;52.426;4.886;2022-12-20T04:43:20;7.50;;;4.73;;
11572;SDS011;5842;52.426;4.886;2022-12-20T04:45:50;7.37;;;4.57;;
11572;SDS011;5842;52.426;4.886;2022-12-20T04:48:20;7.90;;;5.20;;
11572;SDS011;5842;52.426;4.886;2022-12-20T04:50:48;5.67;;;4.77;;
11572;SDS011;5842;52.426;4.886;2022-12-20T04:53:16;8.47;;;5.10;;
11572;SDS011;5842;52.426;4.886;2022-12-20T04:56:00;7.00;;;5.37;;
11572;SDS011;5842;52.426;4.886;2022-12-20T04:58:28;7.27;;;5.10;;
11572;SDS011;5842;52.426;4.886;2022-12-20T05:00:57;8.43;;;5.33;;
11572;SDS011;5842;52.426;4.886;2022-12-20T05:03:24;8.23;;;5.43;;
11572;SDS011;5842;52.426;4.886;2022-12-20T05:05:52;7.93;;;5.10;;
11572;SDS011;5842;52.426;4.886;2022-12-20T05:08:19;8.27;;;5.73;;
11572;SDS011;5842;52.426;4.886;2022-12-20T05:10:47;12.53;;;5.70;;
11572;SDS011;5842;52.426;4.886;2022-12-20T05:13:14;8.63;;;6.07;;
11572;SDS011;5842;52.426;4.886;2022-12-20T05:15:42;7.50;;;5.63;;
11572;SDS011;5842;52.426;4.886;2022-12-20T05:18:11;8.43;;;5.80;;
11572;SDS011;5842;52.426;4.886;2022-12-20T05:20:38;9.00;;;6.20;;
11572;SDS011;5842;52.426;4.886;2022-12-20T05:23:05;8.43;;;6.20;;
11572;SDS011;5842;52.426;4.886;2022-12-20T05:25:52;8.63;;;6.73;;
11572;SDS011;5842;52.426;4.886;2022-12-20T05:28:37;9.60;;;6.57;;
11572;SDS011;5842;52.426;4.886;2022-12-20T05:31:04;11.33;;;7.73;;
11572;SDS011;5842;52.426;4.886;2022-12-20T05:33:33;9.80;;;6.83;;
11572;SDS011;5842;52.426;4.886;2022-12-20T05:36:04;9.23;;;7.07;;
11572;SDS011;5842;52.426;4.886;2022-12-20T05:38:31;10.27;;;6.87;;
11572;SDS011;5842;52.426;4.886;2022-12-20T05:40:59;11.77;;;7.57;;
11572;SDS011;5842;52.426;4.886;2022-12-20T05:43:29;12.13;;;7.23;;
11572;SDS011;5842;52.426;4.886;2022-12-20T05:45:56;9.33;;;7.10;;
11572;SDS011;5842;52.426;4.886;2022-12-20T05:48:24;11.03;;;7.90;;
11572;SDS011;5842;52.426;4.886;2022-12-20T05:50:53;9.53;;;7.23;;
11572;SDS011;5842;52.426;4.886;2022-12-20T05:53:20;13.43;;;8.23;;
11572;SDS011;5842;52.426;4.886;2022-12-20T05:55:49;10.27;;;7.47;;
11572;SDS011;5842;52.426;4.886;2022-12-20T05:58:16;12.67;;;8.27;;
11572;SDS011;5842;52.426;4.886;2022-12-20T06:00:44;11.53;;;7.93;;
11572;SDS011;5842;52.426;4.886;2022-12-20T06:03:13;10.20;;;7.90;;
11572;SDS011;5842;52.426;4.886;2022-12-20T06:05:41;12.93;;;8.30;;
11572;SDS011;5842;52.426;4.886;2022-12-20T06:08:10;13.73;;;8.60;;
11572;SDS011;5842;52.426;4.886;2022-12-20T06:10:38;11.60;;;8.73;;
11572;SDS011;5842;52.426;4.886;2022-12-20T06:13:06;12.17;;;8.67;;
11572;SDS011;5842;52.426;4.886;2022-12-20T06:15:34;12.87;;;8.67;;
11572;SDS011;5842;52.426;4.886;2022-12-20T06:18:02;10.63;;;8.43;;
11572;SDS011;5842;52.426;4.886;2022-12-20T06:20:31;12.70;;;8.50;;
11572;SDS011;5842;52.426;4.886;2022-12-20T06:22:58;12.60;;;8.63;;
11572;SDS011;5842;52.426;4.886;2022-12-20T06:25:27;9.37;;;7.97;;
11572;SDS011;5842;52.426;4.886;2022-12-20T06:27:55;10.03;;;7.83;;
11572;SDS011;5842;52.426;4.886;2022-12-20T06:30:23;12.37;;;7.60;;
11572;SDS011;5842;52.426;4.886;2022-12-20T06:32:50;12.27;;;8.20;;
11572;SDS011;5842;52.426;4.886;2022-12-20T06:35:18;10.40;;;7.43;;
11572;SDS011;5842;52.426;4.886;2022-12-20T06:37:45;11.33;;;8.03;;
11572;SDS011;5842;52.426;4.886;2022-12-20T06:40:13;11.63;;;7.20;;
11572;SDS011;5842;52.426;4.886;2022-12-20T06:42:42;11.60;;;6.70;;
11572;SDS011;5842;52.426;4.886;2022-12-20T06:45:10;10.73;;;7.00;;
11572;SDS011;5842;52.426;4.886;2022-12-20T06:47:37;7.20;;;6.20;;
11572;SDS011;5842;52.426;4.886;2022-12-20T06:50:05;8.83;;;6.40;;
11572;SDS011;5842;52.426;4.886;2022-12-20T06:52:33;11.57;;;6.97;;
11572;SDS011;5842;52.426;4.886;2022-12-20T06:55:00;9.47;;;6.33;;
11572;SDS011;5842;52.426;4.886;2022-12-20T06:57:28;9.63;;;6.20;;
11572;SDS011;5842;52.426;4.886;2022-12-20T07:00:00;8.67;;;5.70;;
11572;SDS011;5842;52.426;4.886;2022-12-20T07:02:27;10.47;;;6.17;;
11572;SDS011;5842;52.426;4.886;2022-12-20T07:04:55;8.17;;;5.80;;
11572;SDS011;5842;52.426;4.886;2022-12-20T07:07:22;7.57;;;5.27;;
11572;SDS011;5842;52.426;4.886;2022-12-20T07:09:50;7.50;;;5.77;;
11572;SDS011;5842;52.426;4.886;2022-12-20T07:12:17;7.70;;;5.63;;
11572;SDS011;5842;52.426;4.886;2022-12-20T07:14:45;8.77;;;5.60;;
11572;SDS011;5842;52.426;4.886;2022-12-20T07:17:14;8.03;;;5.50;;
11572;SDS011;5842;52.426;4.886;2022-12-20T07:19:41;7.77;;;6.10;;
11572;SDS011;5842;52.426;4.886;2022-12-20T07:38:25;11.17;;;5.90;;
11572;SDS011;5842;52.426;4.886;2022-12-20T07:40:52;9.00;;;5.40;;
11572;SDS011;5842;52.426;4.886;2022-12-20T07:43:19;10.10;;;5.93;;
11572;SDS011;5842;52.426;4.886;2022-12-20T07:45:47;8.70;;;5.50;;
11572;SDS011;5842;52.426;4.886;2022-12-20T07:48:14;9.80;;;5.60;;
11572;SDS011;5842;52.426;4.886;2022-12-20T07:50:42;9.53;;;5.13;;
11572;SDS011;5842;52.426;4.886;2022-12-20T07:53:09;8.00;;;5.10;;
11572;SDS011;5842;52.426;4.886;2022-12-20T07:55:38;7.83;;;5.20;;
11572;SDS011;5842;52.426;4.886;2022-12-20T07:58:07;8.10;;;5.37;;
11572;SDS011;5842;52.426;4.886;2022-12-20T08:00:38;7.93;;;4.80;;
11572;SDS011;5842;52.426;4.886;2022-12-20T08:03:07;6.80;;;4.50;;
11572;SDS011;5842;52.426;4.886;2022-12-20T08:05:35;7.97;;;4.83;;
11572;SDS011;5842;52.426;4.886;2022-12-20T08:08:05;5.57;;;4.50;;
11572;SDS011;5842;52.426;4.886;2022-12-20T08:10:33;8.50;;;4.70;;
11572;SDS011;5842;52.426;4.886;2022-12-20T08:13:02;8.00;;;4.97;;
11572;SDS011;5842;52.426;4.886;2022-12-20T08:15:30;7.07;;;4.80;;
11572;SDS011;5842;52.426;4.886;2022-12-20T08:17:57;7.27;;;4.60;;
11572;SDS011;5842;52.426;4.886;2022-12-20T08:20:25;7.87;;;4.83;;
11572;SDS011;5842;52.426;4.886;2022-12-20T08:22:53;7.77;;;4.53;;
11572;SDS011;5842;52.426;4.886;2022-12-20T08:25:20;6.60;;;5.13;;
11572;SDS011;5842;52.426;4.886;2022-12-20T08:27:48;7.00;;;4.53;;
11572;SDS011;5842;52.426;4.886;2022-12-20T08:30:18;8.93;;;4.83;;
11572;SDS011;5842;52.426;4.886;2022-12-20T08:32:45;7.77;;;4.60;;
11572;SDS011;5842;52.426;4.886;2022-12-20T08:35:13;7.33;;;5.13;;
11572;SDS011;5842;52.426;4.886;2022-12-20T08:37:40;8.13;;;5.33;;
11572;SDS011;5842;52.426;4.886;2022-12-20T08:40:08;8.97;;;5.27;;
11572;SDS011;5842;52.426;4.886;2022-12-20T08:42:36;7.13;;;5.03;;
11572;SDS011;5842;52.426;4.886;2022-12-20T08:45:04;8.70;;;5.07;;
11572;SDS011;5842;52.426;4.886;2022-12-20T08:47:33;7.47;;;5.37;;
11572;SDS011;5842;52.426;4.886;2022-12-20T08:50:00;9.30;;;5.33;;
11572;SDS011;5842;52.426;4.886;2022-12-20T08:52:30;8.23;;;5.30;;
11572;SDS011;5842;52.426;4.886;2022-12-20T08:54:58;8.87;;;5.40;;
11572;SDS011;5842;52.426;4.886;2022-12-20T08:57:25;7.63;;;5.33;;
11572;SDS011;5842;52.426;4.886;2022-12-20T08:59:53;9.03;;;5.60;;
11572;SDS011;5842;52.426;4.886;2022-12-20T09:02:20;8.90;;;5.00;;
11572;SDS011;5842;52.426;4.886;2022-12-20T09:04:49;9.43;;;5.67;;
11572;SDS011;5842;52.426;4.886;2022-12-20T09:07:17;8.63;;;5.67;;
11572;SDS011;5842;52.426;4.886;2022-12-20T09:09:45;7.87;;;5.67;;
11572;SDS011;5842;52.426;4.886;2022-12-20T09:12:12;7.67;;;5.57;;
11572;SDS011;5842;52.426;4.886;2022-12-20T09:14:40;8.83;;;5.93;;
11572;SDS011;5842;52.426;4.886;2022-12-20T09:17:07;9.07;;;5.67;;
11572;SDS011;5842;52.426;4.886;2022-12-20T09:19:35;11.10;;;6.00;;
11572;SDS011;5842;52.426;4.886;2022-12-20T09:22:09;14.37;;;5.77;;
11572;SDS011;5842;52.426;4.886;2022-12-20T09:24:36;9.70;;;5.70;;
11572;SDS011;5842;52.426;4.886;2022-12-20T09:27:04;12.03;;;6.13;;
11572;SDS011;5842;52.426;4.886;2022-12-20T09:29:31;8.33;;;5.13;;
11572;SDS011;5842;52.426;4.886;2022-12-20T09:31:59;9.57;;;6.03;;
11572;SDS011;5842;52.426;4.886;2022-12-20T09:34:26;8.57;;;5.70;;
11572;SDS011;5842;52.426;4.886;2022-12-20T09:36:54;9.87;;;5.93;;
11572;SDS011;5842;52.426;4.886;2022-12-20T09:39:23;7.63;;;5.60;;
11572;SDS011;5842;52.426;4.886;2022-12-20T09:41:50;12.63;;;5.93;;
11572;SDS011;5842;52.426;4.886;2022-12-20T09:44:20;8.53;;;6.00;;
11572;SDS011;5842;52.426;4.886;2022-12-20T09:46:53;6.67;;;5.33;;
11572;SDS011;5842;52.426;4.886;2022-12-20T09:49:27;8.47;;;6.10;;
11572;SDS011;5842;52.426;4.886;2022-12-20T09:52:02;9.03;;;5.13;;
11572;SDS011;5842;52.426;4.886;2022-12-20T09:54:36;8.50;;;5.03;;
11572;SDS011;5842;52.426;4.886;2022-12-20T09:57:16;8.30;;;5.93;;
11572;SDS011;5842;52.426;4.886;2022-12-20T09:59:47;9.40;;;5.37;;
11572;SDS011;5842;52.426;4.886;2022-12-20T10:02:15;8.50;;;4.93;;
11572;SDS011;5842;52.426;4.886;2022-12-20T10:04:46;6.40;;;5.37;;
11572;SDS011;5842;52.426;4.886;2022-12-20T10:07:18;9.30;;;5.80;;
11572;SDS011;5842;52.426;4.886;2022-12-20T10:09:55;7.20;;;5.87;;
11572;SDS011;5842;52.426;4.886;2022-12-20T10:12:28;8.93;;;5.43;;
11572;SDS011;5842;52.426;4.886;2022-12-20T10:17:47;9.27;;;6.20;;
11572;SDS011;5842;52.426;4.886;2022-12-20T10:23:03;10.67;;;6.23;;
11572;SDS011;5842;52.426;4.886;2022-12-20T10:25:33;6.53;;;5.27;;
11572;SDS011;5842;52.426;4.886;2022-12-20T10:28:00;6.93;;;5.70;;
11572;SDS011;5842;52.426;4.886;2022-12-20T10:30:30;9.20;;;6.20;;
11572;SDS011;5842;52.426;4.886;2022-12-20T10:32:58;7.83;;;5.80;;
11572;SDS011;5842;52.426;4.886;2022-12-20T10:35:26;8.87;;;6.50;;
11572;SDS011;5842;52.426;4.886;2022-12-20T10:37:56;11.60;;;6.13;;
11572;SDS011;5842;52.426;4.886;2022-12-20T10:40:25;10.27;;;6.10;;
11572;SDS011;5842;52.426;4.886;2022-12-20T10:42:55;8.87;;;6.03;;
11572;SDS011;5842;52.426;4.886;2022-12-20T10:45:26;8.60;;;6.23;;
11572;SDS011;5842;52.426;4.886;2022-12-20T10:47:57;8.17;;;5.97;;
11572;SDS011;5842;52.426;4.886;2022-12-20T10:50:25;9.33;;;5.80;;
11572;SDS011;5842;52.426;4.886;2022-12-20T10:53:04;13.03;;;6.90;;
11572;SDS011;5842;52.426;4.886;2022-12-20T10:55:38;10.80;;;6.23;;
11572;SDS011;5842;52.426;4.886;2022-12-20T10:58:12;8.97;;;6.80;;
11572;SDS011;5842;52.426;4.886;2022-12-20T11:00:41;11.43;;;7.43;;
11572;SDS011;5842;52.426;4.886;2022-12-20T11:03:11;8.73;;;6.73;;
11572;SDS011;5842;52.426;4.886;2022-12-20T11:05:40;11.07;;;7.07;;
11572;SDS011;5842;52.426;4.886;2022-12-20T11:08:18;12.27;;;6.73;;
11572;SDS011;5842;52.426;4.886;2022-12-20T11:10:48;10.30;;;7.13;;
11572;SDS011;5842;52.426;4.886;2022-12-20T11:13:21;10.60;;;7.17;;
11572;SDS011;5842;52.426;4.886;2022-12-20T11:15:50;10.07;;;6.97;;
11572;SDS011;5842;52.426;4.886;2022-12-20T11:18:26;11.13;;;6.23;;
11572;SDS011;5842;52.426;4.886;2022-12-20T11:20:59;9.17;;;6.77;;
11572;SDS011;5842;52.426;4.886;2022-12-20T11:23:31;10.43;;;6.57;;
11572;SDS011;5842;52.426;4.886;2022-12-20T11:26:06;11.27;;;6.53;;
11572;SDS011;5842;52.426;4.886;2022-12-20T11:28:49;11.67;;;6.23;;
11572;SDS011;5842;52.426;4.886;2022-12-20T11:31:19;9.87;;;6.60;;
11572;SDS011;5842;52.426;4.886;2022-12-20T11:33:58;12.53;;;6.43;;
11572;SDS011;5842;52.426;4.886;2022-12-20T11:36:31;11.17;;;7.10;;
11572;SDS011;5842;52.426;4.886;2022-12-20T11:39:04;11.83;;;6.97;;
11572;SDS011;5842;52.426;4.886;2022-12-20T11:41:40;9.00;;;6.47;;
11572;SDS011;5842;52.426;4.886;2022-12-20T11:44:15;11.27;;;6.77;;
11572;SDS011;5842;52.426;4.886;2022-12-20T11:46:48;9.27;;;6.77;;
11572;SDS011;5842;52.426;4.886;2022-12-20T11:52:03;8.67;;;6.70;;
11572;SDS011;5842;52.426;4.886;2022-12-20T11:54:32;11.80;;;7.37;;
11572;SDS011;5842;52.426;4.886;2022-12-20T11:57:03;9.50;;;6.73;;
11572;SDS011;5842;52.426;4.886;2022-12-20T11:59:36;10.93;;;7.37;;
11572;SDS011;5842;52.426;4.886;2022-12-20T12:02:08;14.47;;;7.57;;
11572;SDS011;5842;52.426;4.886;2022-12-20T12:04:37;10.67;;;7.57;;
11572;SDS011;5842;52.426;4.886;2022-12-20T12:07:07;15.70;;;7.73;;
11572;SDS011;5842;52.426;4.886;2022-12-20T12:09:39;9.83;;;7.53;;
11572;SDS011;5842;52.426;4.886;2022-12-20T12:12:09;9.47;;;7.67;;
11572;SDS011;5842;52.426;4.886;2022-12-20T12:14:43;11.27;;;8.07;;
11572;SDS011;5842;52.426;4.886;2022-12-20T12:17:12;10.83;;;8.20;;
11572;SDS011;5842;52.426;4.886;2022-12-20T12:19:44;13.53;;;8.43;;
11572;SDS011;5842;52.426;4.886;2022-12-20T12:22:13;13.30;;;8.90;;
11572;SDS011;5842;52.426;4.886;2022-12-20T12:24:43;11.93;;;8.07;;
11572;SDS011;5842;52.426;4.886;2022-12-20T12:27:13;13.00;;;8.33;;
11572;SDS011;5842;52.426;4.886;2022-12-20T12:29:43;12.63;;;8.50;;
11572;SDS011;5842;52.426;4.886;2022-12-20T12:32:13;11.30;;;9.07;;
11572;SDS011;5842;52.426;4.886;2022-12-20T12:34:46;12.37;;;8.40;;
11572;SDS011;5842;52.426;4.886;2022-12-20T12:37:36;14.67;;;8.70;;
11572;SDS011;5842;52.426;4.886;2022-12-20T12:42:59;14.50;;;9.20;;
11572;SDS011;5842;52.426;4.886;2022-12-20T12:45:34;15.90;;;10.13;;
11572;SDS011;5842;52.426;4.886;2022-12-20T12:48:04;12.37;;;9.70;;
11572;SDS011;5842;52.426;4.886;2022-12-20T12:50:35;11.97;;;9.30;;
11572;SDS011;5842;52.426;4.886;2022-12-20T12:53:03;15.30;;;10.07;;
11572;SDS011;5842;52.426;4.886;2022-12-20T12:55:37;14.13;;;11.10;;
11572;SDS011;5842;52.426;4.886;2022-12-20T12:58:29;15.13;;;10.33;;
11572;SDS011;5842;52.426;4.886;2022-12-20T13:00:58;17.73;;;10.67;;
11572;SDS011;5842;52.426;4.886;2022-12-20T13:03:45;11.80;;;10.33;;
11572;SDS011;5842;52.426;4.886;2022-12-20T13:06:42;14.20;;;10.60;;
11572;SDS011;5842;52.426;4.886;2022-12-20T13:09:17;16.67;;;10.30;;
11572;SDS011;5842;52.426;4.886;2022-12-20T13:11:45;17.00;;;11.17;;
11572;SDS011;5842;52.426;4.886;2022-12-20T13:17:37;15.80;;;10.83;;
11572;SDS011;5842;52.426;4.886;2022-12-20T13:19:47;17.67;;;12.07;;
11572;SDS011;5842;52.426;4.886;2022-12-20T13:22:18;15.83;;;11.30;;
11572;SDS011;5842;52.426;4.886;2022-12-20T13:24:54;16.40;;;11.80;;
11572;SDS011;5842;52.426;4.886;2022-12-20T13:27:29;18.17;;;11.97;;
11572;SDS011;5842;52.426;4.886;2022-12-20T13:29:58;16.40;;;11.20;;
11572;SDS011;5842;52.426;4.886;2022-12-20T13:35:29;17.40;;;11.53;;
11572;SDS011;5842;52.426;4.886;2022-12-20T13:37:57;17.57;;;12.60;;
11572;SDS011;5842;52.426;4.886;2022-12-20T13:40:30;18.63;;;12.13;;
11572;SDS011;5842;52.426;4.886;2022-12-20T13:43:01;19.60;;;12.80;;
11572;SDS011;5842;52.426;4.886;2022-12-20T13:45:31;18.53;;;12.13;;
11572;SDS011;5842;52.426;4.886;2022-12-20T13:48:00;16.37;;;12.67;;
11572;SDS011;5842;52.426;4.886;2022-12-20T13:50:32;16.73;;;13.27;;
11572;SDS011;5842;52.426;4.886;2022-12-20T13:53:02;17.50;;;12.43;;
11572;SDS011;5842;52.426;4.886;2022-12-20T13:55:35;19.63;;;12.77;;
11572;SDS011;5842;52.426;4.886;2022-12-20T13:58:04;20.93;;;13.17;;
11572;SDS011;5842;52.426;4.886;2022-12-20T14:00:34;21.20;;;14.13;;
11572;SDS011;5842;52.426;4.886;2022-12-20T14:03:02;20.70;;;13.53;;
11572;SDS011;5842;52.426;4.886;2022-12-20T14:05:32;20.10;;;14.63;;
11572;SDS011;5842;52.426;4.886;2022-12-20T14:08:00;23.87;;;14.63;;
11572;SDS011;5842;52.426;4.886;2022-12-20T14:10:30;21.60;;;14.27;;
11572;SDS011;5842;52.426;4.886;2022-12-20T14:12:58;21.43;;;14.80;;
11572;SDS011;5842;52.426;4.886;2022-12-20T14:15:26;19.20;;;14.27;;
11572;SDS011;5842;52.426;4.886;2022-12-20T14:17:54;18.93;;;14.47;;
11572;SDS011;5842;52.426;4.886;2022-12-20T14:20:23;20.93;;;14.70;;
11572;SDS011;5842;52.426;4.886;2022-12-20T14:22:54;21.50;;;14.63;;
11572;SDS011;5842;52.426;4.886;2022-12-20T14:25:27;21.30;;;14.93;;
11572;SDS011;5842;52.426;4.886;2022-12-20T14:27:55;21.77;;;15.37;;
11572;SDS011;5842;52.426;4.886;2022-12-20T14:30:28;20.70;;;15.00;;
11572;SDS011;5842;52.426;4.886;2022-12-20T14:32:57;18.27;;;13.77;;
11572;SDS011;5842;52.426;4.886;2022-12-20T14:35:24;20.67;;;14.23;;
11572;SDS011;5842;52.426;4.886;2022-12-20T14:37:55;20.13;;;13.90;;
11572;SDS011;5842;52.426;4.886;2022-12-20T14:40:22;20.10;;;15.07;;
11572;SDS011;5842;52.426;4.886;2022-12-20T14:42:50;21.73;;;14.50;;
11572;SDS011;5842;52.426;4.886;2022-12-20T14:45:19;22.33;;;15.17;;
11572;SDS011;5842;52.426;4.886;2022-12-20T14:47:48;21.63;;;15.10;;
11572;SDS011;5842;52.426;4.886;2022-12-20T14:50:17;20.53;;;15.50;;
11572;SDS011;5842;52.426;4.886;2022-12-20T14:52:44;21.73;;;15.37;;
11572;SDS011;5842;52.426;4.886;2022-12-20T14:55:15;21.40;;;15.90;;
11572;SDS011;5842;52.426;4.886;2022-12-20T14:57:44;20.67;;;16.50;;
11572;SDS011;5842;52.426;4.886;2022-12-20T15:00:14;23.10;;;16.70;;
11572;SDS011;5842;52.426;4.886;2022-12-20T15:02:45;24.37;;;16.57;;
11572;SDS011;5842;52.426;4.886;2022-12-20T15:08:08;21.93;;;16.47;;
11572;SDS011;5842;52.426;4.886;2022-12-20T15:10:38;27.73;;;17.83;;
11572;SDS011;5842;52.426;4.886;2022-12-20T15:13:09;28.00;;;17.63;;
11572;SDS011;5842;52.426;4.886;2022-12-20T15:15:38;26.73;;;17.00;;
11572;SDS011;5842;52.426;4.886;2022-12-20T15:18:13;31.63;;;19.27;;
11572;SDS011;5842;52.426;4.886;2022-12-20T15:20:41;26.80;;;18.10;;
11572;SDS011;5842;52.426;4.886;2022-12-20T15:23:11;28.17;;;18.63;;
11572;SDS011;5842;52.426;4.886;2022-12-20T15:25:41;28.07;;;19.73;;
11572;SDS011;5842;52.426;4.886;2022-12-20T15:28:13;27.37;;;19.30;;
11572;SDS011;5842;52.426;4.886;2022-12-20T15:30:41;32.87;;;19.80;;
11572;SDS011;5842;52.426;4.886;2022-12-20T15:33:13;25.90;;;18.30;;
11572;SDS011;5842;52.426;4.886;2022-12-20T15:35:41;34.03;;;20.27;;
11572;SDS011;5842;52.426;4.886;2022-12-20T15:38:12;30.37;;;20.40;;
11572;SDS011;5842;52.426;4.886;2022-12-20T15:43:26;34.00;;;19.63;;
11572;SDS011;5842;52.426;4.886;2022-12-20T15:45:55;29.07;;;19.30;;
11572;SDS011;5842;52.426;4.886;2022-12-20T15:48:22;33.00;;;20.57;;
11572;SDS011;5842;52.426;4.886;2022-12-20T15:50:52;29.17;;;20.00;;